Time;durP1;ratioP1;P1;durP2;ratioP2;P2;SDS_P1;SDS_P2;PMS_P1;PMS_P2;Temp;Humidity;BMP_temperature;BMP_pressure;BME280_temperature;BME280_humidity;BME280_pressure;Samples;Min_cycle;Max_cycle;Signal;HPM_P1;HPM_P2
2022/07/08 00:02:15;;;;;;;2.33;2.13;;;25.20;56.30;;;;;;6110175;28;80371;-65
2022/07/08 00:05:15;;;;;;;2.33;1.83;;;25.20;56.30;;;;;;6108529;28;81852;-66
2022/07/08 00:08:16;;;;;;;2.20;1.90;;;25.20;56.30;;;;;;6096552;28;83717;-66
2022/07/08 00:11:16;;;;;;;3.28;2.47;;;25.20;56.40;;;;;;6112143;28;80377;-66
2022/07/08 00:14:17;;;;;;;2.03;1.83;;;25.20;56.30;;;;;;6114406;28;80588;-66
2022/07/08 00:17:17;;;;;;;2.88;1.98;;;25.20;56.30;;;;;;6114649;28;80854;-66
2022/07/08 00:20:18;;;;;;;1.85;1.75;;;25.20;56.40;;;;;;6114449;28;80438;-67
2022/07/08 00:23:18;;;;;;;3.22;1.90;;;25.20;56.40;;;;;;6120243;28;80415;-67
2022/07/08 00:26:19;;;;;;;2.20;1.80;;;25.20;56.40;;;;;;6115242;28;81819;-67
2022/07/08 00:29:19;;;;;;;2.30;1.83;;;25.20;56.40;;;;;;6113362;28;80195;-67
2022/07/08 00:32:20;;;;;;;12.60;2.15;;;25.10;56.30;;;;;;6113056;28;82702;-67
2022/07/08 00:35:21;;;;;;;3.15;2.05;;;25.10;56.30;;;;;;6100934;28;87514;-67
2022/07/08 00:38:21;;;;;;;2.13;1.73;;;25.20;56.30;;;;;;6113969;28;81116;-67
2022/07/08 00:41:22;;;;;;;2.90;1.98;;;25.20;56.40;;;;;;6112554;28;81468;-66
2022/07/08 00:44:22;;;;;;;4.05;2.10;;;25.10;56.20;;;;;;6113359;28;80913;-67
2022/07/08 00:47:23;;;;;;;2.28;2.10;;;25.20;56.30;;;;;;6107100;28;80698;-66
2022/07/08 00:50:23;;;;;;;2.63;1.90;;;25.10;56.40;;;;;;6113831;28;80251;-67
2022/07/08 00:53:24;;;;;;;3.08;2.13;;;25.10;56.30;;;;;;6113542;28;79970;-67
2022/07/08 00:56:24;;;;;;;2.08;1.90;;;25.10;56.30;;;;;;6113355;28;81610;-66
2022/07/08 00:59:25;;;;;;;2.83;1.92;;;25.10;56.30;;;;;;6113410;28;79999;-66
2022/07/08 01:02:25;;;;;;;2.50;2.22;;;25.10;56.30;;;;;;6112926;28;80784;-67
2022/07/08 01:05:26;;;;;;;2.20;1.90;;;25.10;56.40;;;;;;6108177;28;80328;-66
2022/07/08 01:08:26;;;;;;;2.63;1.63;;;25.10;56.40;;;;;;6112864;28;80364;-67
2022/07/08 01:11:27;;;;;;;2.00;1.77;;;25.20;56.40;;;;;;6113485;28;82169;-67
2022/07/08 01:14:27;;;;;;;1.80;1.60;;;25.10;56.30;;;;;;6113256;28;80093;-66
2022/07/08 01:17:28;;;;;;;1.65;1.55;;;25.10;56.30;;;;;;6113174;28;81873;-66
2022/07/08 01:20:28;;;;;;;2.65;1.77;;;25.20;56.50;;;;;;6113159;28;80417;-66
2022/07/08 01:23:29;;;;;;;2.58;1.90;;;25.20;56.50;;;;;;6113831;28;81452;-66
2022/07/08 01:26:29;;;;;;;2.40;1.85;;;25.20;56.50;;;;;;6112726;28;82071;-66
2022/07/08 01:29:30;;;;;;;2.97;1.80;;;25.20;56.50;;;;;;6113009;28;80752;-66
2022/07/08 01:32:30;;;;;;;1.85;1.52;;;25.10;56.40;;;;;;6112497;28;80515;-66
2022/07/08 01:35:31;;;;;;;3.42;1.70;;;25.10;56.40;;;;;;6122009;28;80748;-66
2022/07/08 01:38:31;;;;;;;4.57;2.20;;;25.10;56.40;;;;;;6113301;28;80624;-66
2022/07/08 01:41:32;;;;;;;3.38;2.33;;;25.10;56.40;;;;;;6113314;28;80258;-66
2022/07/08 01:44:32;;;;;;;2.58;1.80;;;25.10;56.40;;;;;;6113006;28;80556;-67
2022/07/08 01:47:33;;;;;;;3.80;2.78;;;25.10;56.50;;;;;;6112977;28;80947;-67
2022/07/08 01:50:33;;;;;;;3.28;2.25;;;25.10;56.50;;;;;;6111071;28;83473;-66
2022/07/08 01:53:34;;;;;;;2.92;1.95;;;25.10;56.50;;;;;;6112406;28;80151;-68
2022/07/08 01:56:34;;;;;;;2.20;1.80;;;25.10;56.40;;;;;;6112464;28;80565;-67
2022/07/08 01:59:35;;;;;;;2.65;2.30;;;25.10;56.50;;;;;;6112103;28;81136;-67
2022/07/08 02:02:35;;;;;;;4.28;2.38;;;25.10;56.50;;;;;;6112603;28;80567;-67
2022/07/08 02:05:37;;;;;;;2.50;2.05;;;25.10;56.50;;;;;;6110939;28;80448;-66
2022/07/08 02:08:37;;;;;;;2.67;2.08;;;25.10;56.80;;;;;;6112243;28;80781;-66
2022/07/08 02:15:03;;;;;;;3.40;2.17;;;25.10;56.90;;;;;;6110737;28;81653;-65
2022/07/08 02:18:04;;;;;;;7.57;2.67;;;25.10;56.70;;;;;;6110286;28;80881;-66
2022/07/08 02:21:05;;;;;;;6.40;3.63;;;25.10;56.80;;;;;;6111945;28;80280;-67
2022/07/08 02:24:05;;;;;;;4.95;2.58;;;25.10;56.90;;;;;;6104732;28;80683;-67
2022/07/08 02:27:06;;;;;;;3.97;2.17;;;25.10;57.00;;;;;;6107832;28;80716;-67
2022/07/08 02:30:07;;;;;;;3.78;2.38;;;25.10;57.10;;;;;;6110461;28;80443;-67
2022/07/08 02:33:07;;;;;;;3.50;2.78;;;25.10;57.20;;;;;;6111511;28;81289;-67
2022/07/08 02:36:08;;;;;;;3.53;2.72;;;25.10;57.20;;;;;;6108797;28;81576;-67
2022/07/08 02:39:08;;;;;;;3.05;2.28;;;25.10;57.20;;;;;;6111159;28;80835;-67
2022/07/08 02:42:09;;;;;;;3.35;2.50;;;25.10;57.40;;;;;;6110847;28;80506;-67
2022/07/08 02:45:09;;;;;;;3.70;2.20;;;25.10;57.30;;;;;;6110795;28;80822;-68
2022/07/08 02:48:10;;;;;;;3.38;2.83;;;25.10;57.30;;;;;;6110832;28;80483;-66
2022/07/08 02:51:10;;;;;;;5.45;2.67;;;25.10;57.40;;;;;;6106814;28;80496;-68
2022/07/08 02:54:11;;;;;;;5.03;2.35;;;25.20;57.50;;;;;;6112506;28;80232;-67
2022/07/08 02:57:11;;;;;;;3.83;2.53;;;25.10;57.40;;;;;;6122266;28;81825;-66
2022/07/08 03:00:12;;;;;;;4.45;2.42;;;25.10;57.60;;;;;;6111495;28;80848;-67
2022/07/08 03:03:12;;;;;;;4.22;2.55;;;25.10;57.60;;;;;;6111664;28;80535;-67
2022/07/08 03:06:13;;;;;;;6.72;2.38;;;25.10;57.60;;;;;;6103166;28;81707;-67
2022/07/08 03:09:13;;;;;;;3.38;2.60;;;25.10;57.70;;;;;;6116257;28;80325;-67
2022/07/08 03:12:14;;;;;;;5.57;2.55;;;25.10;57.70;;;;;;6115073;28;81425;-65
2022/07/08 03:15:14;;;;;;;6.65;2.72;;;25.10;57.70;;;;;;6109369;28;81576;-65
2022/07/08 03:18:15;;;;;;;2.58;2.22;;;25.10;57.70;;;;;;6111222;28;80532;-67
2022/07/08 03:21:15;;;;;;;5.07;2.40;;;25.10;57.50;;;;;;6109969;28;80276;-66
2022/07/08 03:24:16;;;;;;;3.08;2.15;;;25.10;57.70;;;;;;6103697;28;80185;-67
2022/07/08 03:27:16;;;;;;;5.20;2.35;;;25.10;57.60;;;;;;6110972;28;80450;-67
2022/07/08 03:30:17;;;;;;;8.50;3.17;;;25.10;57.60;;;;;;6112071;28;80733;-68
2022/07/08 03:33:17;;;;;;;4.82;2.45;;;25.10;57.70;;;;;;6108783;28;80655;-67
2022/07/08 03:36:18;;;;;;;5.32;2.72;;;25.10;57.80;;;;;;6111886;28;80507;-67
2022/07/08 03:39:18;;;;;;;3.50;2.67;;;25.10;58.00;;;;;;6107476;28;80291;-67
2022/07/08 03:42:19;;;;;;;5.90;2.47;;;25.10;57.90;;;;;;6101897;28;80567;-65
2022/07/08 03:45:19;;;;;;;4.05;2.60;;;25.10;58.00;;;;;;6109406;28;80753;-67
2022/07/08 03:48:20;;;;;;;4.68;2.72;;;25.10;57.80;;;;;;6112980;28;80347;-65
2022/07/08 03:51:21;;;;;;;6.53;3.00;;;25.10;58.10;;;;;;6107898;28;80278;-65
2022/07/08 03:54:21;;;;;;;7.88;3.13;;;25.10;58.00;;;;;;6102594;28;80409;-74
2022/07/08 03:57:22;;;;;;;8.52;3.47;;;25.10;58.20;;;;;;6103792;28;80713;-66
2022/07/08 04:00:22;;;;;;;3.47;2.90;;;25.10;58.20;;;;;;6107648;28;80396;-67
2022/07/08 04:03:23;;;;;;;4.15;2.38;;;25.10;58.10;;;;;;6114798;28;80230;-68
2022/07/08 04:06:23;;;;;;;8.35;2.88;;;25.10;58.10;;;;;;6101629;28;80754;-67
2022/07/08 04:09:24;;;;;;;11.35;2.80;;;25.10;58.10;;;;;;6114942;28;80465;-67
2022/07/08 04:12:24;;;;;;;3.88;2.67;;;25.10;58.30;;;;;;6121261;28;80320;-66
2022/07/08 04:15:25;;;;;;;4.75;2.70;;;25.10;58.50;;;;;;6116885;28;80593;-68
2022/07/08 04:18:25;;;;;;;6.38;3.15;;;25.10;58.30;;;;;;6114786;28;80241;-68
2022/07/08 04:21:26;;;;;;;5.53;3.03;;;25.10;58.40;;;;;;6114282;28;81487;-68
2022/07/08 04:24:26;;;;;;;5.15;2.90;;;25.10;58.40;;;;;;6105296;28;80471;-66
2022/07/08 04:27:27;;;;;;;6.35;2.90;;;25.20;58.40;;;;;;6109745;28;81553;-66
2022/07/08 04:30:27;;;;;;;4.88;3.00;;;25.20;58.40;;;;;;6114127;28;80510;-68
2022/07/08 04:33:28;;;;;;;4.35;3.13;;;25.20;58.40;;;;;;6111805;28;80457;-67
2022/07/08 04:36:28;;;;;;;8.07;2.88;;;25.30;58.60;;;;;;6114354;28;80371;-65
2022/07/08 04:39:29;;;;;;;7.20;3.15;;;25.20;58.70;;;;;;6114516;28;79924;-70
2022/07/08 04:42:29;;;;;;;7.38;3.00;;;25.20;58.80;;;;;;6113477;28;80353;-63
2022/07/08 04:45:30;;;;;;;5.90;2.67;;;25.30;59.00;;;;;;6109159;28;80135;-64
2022/07/08 04:48:30;;;;;;;5.68;2.70;;;25.30;59.00;;;;;;6106708;28;80699;-70
2022/07/08 04:51:31;;;;;;;7.80;3.00;;;25.30;59.00;;;;;;6111577;28;80653;-63
2022/07/08 04:54:31;;;;;;;4.45;2.90;;;25.30;59.00;;;;;;6109511;28;80830;-65
2022/07/08 04:57:32;;;;;;;8.95;3.63;;;25.30;59.10;;;;;;6106490;28;80641;-65
2022/07/08 05:00:33;;;;;;;6.63;3.22;;;25.30;59.00;;;;;;6110000;28;85516;-77
2022/07/08 05:03:33;;;;;;;11.85;3.03;;;25.30;58.90;;;;;;6113905;28;80337;-63
2022/07/08 05:06:34;;;;;;;8.98;4.05;;;25.30;58.90;;;;;;6104600;28;80603;-64
2022/07/08 05:09:34;;;;;;;10.77;3.30;;;25.20;58.50;;;;;;6105819;28;80271;-63
2022/07/08 05:12:34;;;;;;;5.70;2.97;;;25.10;58.40;;;;;;6105748;28;80352;-63
2022/07/08 05:15:35;;;;;;;5.45;3.58;;;25.00;58.30;;;;;;6098324;28;80956;-62
2022/07/08 05:18:36;;;;;;;6.93;3.10;;;24.60;59.00;;;;;;6096266;28;80484;-63
2022/07/08 05:21:37;;;;;;;5.40;3.10;;;24.40;59.60;;;;;;6096386;28;80291;-63
2022/07/08 05:24:37;;;;;;;6.95;3.20;;;24.40;59.30;;;;;;6099494;28;82561;-64
2022/07/08 05:27:37;;;;;;;6.38;3.53;;;24.40;59.20;;;;;;6101913;28;81710;-64
2022/07/08 05:30:38;;;;;;;5.30;3.30;;;24.20;59.50;;;;;;6100859;28;80043;-64
2022/07/08 05:33:38;;;;;;;5.20;3.45;;;24.10;59.90;;;;;;6103571;28;80647;-64
2022/07/08 05:36:39;;;;;;;11.93;5.65;;;24.00;60.10;;;;;;6095848;28;80485;-64
2022/07/08 05:39:39;;;;;;;11.70;5.05;;;24.00;60.40;;;;;;6107206;28;81722;-65
2022/07/08 05:42:40;;;;;;;14.73;4.88;;;23.90;60.40;;;;;;6117628;28;80181;-63
2022/07/08 05:45:40;;;;;;;9.00;4.55;;;24.00;60.60;;;;;;6118652;28;80636;-71
2022/07/08 05:48:41;;;;;;;9.20;4.28;;;24.20;60.10;;;;;;6111859;28;80845;-67
2022/07/08 05:51:41;;;;;;;6.70;3.83;;;24.40;59.80;;;;;;6106645;28;80923;-67
2022/07/08 05:54:45;;;;;;;5.15;3.40;;;24.40;59.50;;;;;;6103847;28;80362;-64
2022/07/08 05:57:46;;;;;;;6.32;3.70;;;24.30;59.10;;;;;;6101146;28;80422;-65
2022/07/08 06:00:46;;;;;;;17.75;4.43;;;23.60;60.70;;;;;;6096196;28;81819;-64
2022/07/08 06:03:47;;;;;;;13.35;3.65;;;23.40;61.50;;;;;;6101148;28;82096;-66
2022/07/08 06:06:47;;;;;;;10.27;5.65;;;23.50;61.40;;;;;;6104206;28;80659;-75
2022/07/08 06:09:48;;;;;;;12.43;6.18;;;23.50;61.50;;;;;;6113131;28;80814;-67
2022/07/08 06:12:50;;;;;;;11.25;5.20;;;23.50;61.50;;;;;;6108160;28;81087;-65
2022/07/08 06:15:50;;;;;;;11.48;4.50;;;23.70;61.10;;;;;;6107248;28;80425;-67
2022/07/08 06:18:51;;;;;;;8.30;4.07;;;23.70;60.80;;;;;;6112996;28;80188;-68
2022/07/08 06:21:51;;;;;;;8.90;4.47;;;23.60;60.70;;;;;;6104206;28;82158;-69
2022/07/08 06:24:55;;;;;;;10.43;4.22;;;23.60;61.20;;;;;;6108623;28;80588;-68
2022/07/08 06:27:55;;;;;;;10.70;3.83;;;23.30;62.20;;;;;;6108319;28;80392;-68
2022/07/08 06:30:56;;;;;;;6.80;4.00;;;23.20;62.80;;;;;;6115449;28;80559;-74
2022/07/08 06:33:56;;;;;;;11.68;4.25;;;23.40;62.60;;;;;;6115292;28;80298;-73
2022/07/08 06:36:57;;;;;;;6.25;2.75;;;23.60;62.00;;;;;;6117188;28;80553;-72
2022/07/08 06:39:58;;;;;;;9.18;3.42;;;23.70;61.80;;;;;;6114342;28;80365;-66
2022/07/08 06:42:58;;;;;;;5.68;3.13;;;23.90;61.30;;;;;;6113385;28;80261;-67
2022/07/08 06:45:59;;;;;;;5.15;3.50;;;24.10;61.00;;;;;;6105104;28;80032;-67
2022/07/08 06:48:59;;;;;;;7.88;3.60;;;24.10;60.70;;;;;;6088796;28;80056;-68
2022/07/08 06:52:00;;;;;;;12.73;4.97;;;23.90;61.30;;;;;;6102235;28;80522;-66
2022/07/08 06:55:00;;;;;;;10.38;4.35;;;24.00;60.90;;;;;;6107420;28;80715;-66
2022/07/08 06:58:01;;;;;;;8.27;4.38;;;24.00;61.00;;;;;;6096912;28;80947;-67
2022/07/08 07:01:01;;;;;;;8.60;4.13;;;23.90;60.90;;;;;;6091119;28;80341;-67
2022/07/08 07:04:02;;;;;;;8.07;3.58;;;24.00;61.10;;;;;;6094188;28;81104;-66
2022/07/08 07:07:02;;;;;;;10.73;4.10;;;24.10;60.50;;;;;;6093154;28;81005;-66
2022/07/08 07:10:03;;;;;;;11.27;3.50;;;24.00;60.20;;;;;;6094598;28;80908;-68
2022/07/08 07:13:03;;;;;;;9.63;3.40;;;24.00;60.10;;;;;;6104837;28;80583;-66
2022/07/08 07:16:04;;;;;;;10.93;4.55;;;24.10;59.80;;;;;;6106489;28;81095;-65
2022/07/08 07:19:04;;;;;;;6.35;3.40;;;24.10;59.70;;;;;;6104576;28;83622;-65
2022/07/08 07:22:05;;;;;;;8.35;3.35;;;24.00;59.80;;;;;;6103019;28;81741;-66
2022/07/08 07:25:05;;;;;;;5.38;2.90;;;24.20;59.50;;;;;;6104263;28;81135;-67
2022/07/08 07:28:06;;;;;;;6.72;3.05;;;24.10;59.70;;;;;;6101097;28;80633;-66
2022/07/08 07:31:07;;;;;;;6.22;3.78;;;23.80;60.30;;;;;;6106107;28;80507;-66
2022/07/08 07:34:08;;;;;;;6.60;3.47;;;23.50;60.70;;;;;;6107366;28;80979;-64
2022/07/08 07:37:08;;;;;;;4.72;3.17;;;23.60;61.20;;;;;;6116183;28;80466;-64
2022/07/08 07:40:09;;;;;;;10.07;2.72;;;23.70;61.10;;;;;;6112352;28;80655;-71
2022/07/08 07:43:09;;;;;;;10.95;3.80;;;23.80;61.00;;;;;;6104271;28;80958;-77
2022/07/08 07:46:09;;;;;;;10.63;3.03;;;23.70;61.00;;;;;;6116399;28;80364;-66
2022/07/08 07:49:10;;;;;;;14.65;8.43;;;23.60;61.40;;;;;;6105877;28;82922;-66
2022/07/08 07:52:11;;;;;;;12.45;5.68;;;23.70;61.40;;;;;;6104983;28;80862;-64
2022/07/08 07:55:11;;;;;;;8.55;4.93;;;23.70;61.70;;;;;;6103579;28;80691;-64
2022/07/08 07:58:11;;;;;;;7.10;3.65;;;23.70;61.60;;;;;;6100075;28;81444;-64
2022/07/08 08:01:12;;;;;;;10.88;4.05;;;23.70;61.70;;;;;;6107852;28;80736;-65
2022/07/08 08:04:12;;;;;;;9.20;3.47;;;23.80;61.90;;;;;;6106679;28;80837;-65
2022/07/08 08:07:13;;;;;;;9.95;3.47;;;23.80;61.90;;;;;;6109413;28;80438;-66
2022/07/08 08:10:14;;;;;;;6.35;3.63;;;23.90;62.20;;;;;;6122611;28;80373;-70
2022/07/08 08:13:15;;;;;;;7.20;3.45;;;23.70;62.70;;;;;;6116578;28;80210;-65
2022/07/08 08:16:15;;;;;;;7.78;3.75;;;23.80;62.70;;;;;;6113240;28;80382;-66
2022/07/08 08:19:15;;;;;;;9.23;3.95;;;23.80;62.50;;;;;;6118920;28;81046;-75
2022/07/08 08:22:16;;;;;;;28.35;6.80;;;23.60;62.40;;;;;;6113018;28;80348;-72
2022/07/08 08:25:17;;;;;;;14.85;5.70;;;23.40;63.40;;;;;;6111735;28;81495;-64
2022/07/08 08:28:17;;;;;;;8.32;3.67;;;23.40;63.70;;;;;;6097389;28;81468;-64
2022/07/08 08:31:18;;;;;;;20.05;4.28;;;23.50;63.80;;;;;;6101203;28;80491;-65
2022/07/08 08:34:18;;;;;;;10.27;4.20;;;23.40;64.10;;;;;;6103309;28;81074;-65
2022/07/08 08:37:19;;;;;;;5.57;3.63;;;23.60;63.80;;;;;;6102073;28;80101;-65
2022/07/08 08:40:19;;;;;;;6.78;3.45;;;23.50;63.60;;;;;;6108671;28;80667;-66
2022/07/08 08:43:20;;;;;;;10.60;4.78;;;23.50;63.70;;;;;;6108334;28;80485;-65
2022/07/08 08:46:20;;;;;;;8.18;3.85;;;23.30;63.40;;;;;;6113367;28;80611;-66
2022/07/08 08:49:21;;;;;;;9.05;4.47;;;23.30;63.40;;;;;;6113494;28;80588;-65
2022/07/08 08:52:21;;;;;;;6.18;3.90;;;23.40;63.00;;;;;;6114235;28;80824;-65
2022/07/08 08:55:22;;;;;;;10.90;3.60;;;23.30;63.30;;;;;;6113958;28;81582;-65
2022/07/08 08:58:22;;;;;;;4.65;3.13;;;23.50;62.60;;;;;;6114258;28;80803;-65
2022/07/08 09:01:23;;;;;;;7.47;3.30;;;23.80;62.70;;;;;;6118840;28;80708;-66
2022/07/08 09:04:23;;;;;;;6.45;3.25;;;23.90;61.40;;;;;;6113497;28;81462;-66
2022/07/08 09:07:24;;;;;;;8.45;3.65;;;24.00;61.40;;;;;;6116903;28;80568;-65
2022/07/08 09:10:24;;;;;;;6.57;3.20;;;24.20;61.00;;;;;;6113897;28;80256;-65
2022/07/08 09:13:25;;;;;;;5.28;2.85;;;24.00;60.90;;;;;;6115094;28;80235;-65
2022/07/08 09:16:25;;;;;;;20.25;4.18;;;24.20;60.70;;;;;;6112263;28;81238;-65
2022/07/08 09:19:26;;;;;;;25.33;3.83;;;24.30;60.10;;;;;;6101889;28;80869;-65
2022/07/08 09:22:26;;;;;;;7.85;3.03;;;24.40;59.90;;;;;;6110308;28;80774;-65
2022/07/08 09:25:27;;;;;;;5.55;3.17;;;24.40;59.40;;;;;;6108018;28;80224;-64
2022/07/08 09:28:27;;;;;;;10.35;3.83;;;24.50;59.40;;;;;;6108104;28;80794;-65
2022/07/08 09:31:28;;;;;;;5.68;3.33;;;24.50;59.70;;;;;;6112137;28;80577;-65
2022/07/08 09:34:28;;;;;;;8.95;3.53;;;24.60;60.20;;;;;;6110381;28;80582;-64
2022/07/08 09:37:29;;;;;;;8.20;3.05;;;24.60;60.30;;;;;;6110288;28;80653;-64
2022/07/08 09:40:29;;;;;;;8.25;3.45;;;24.70;60.40;;;;;;6117756;28;80728;-65
2022/07/08 09:43:30;;;;;;;5.45;3.15;;;24.70;60.60;;;;;;6114088;28;81568;-65
2022/07/08 09:46:30;;;;;;;6.90;3.53;;;24.70;60.70;;;;;;6112630;28;80369;-65
2022/07/08 09:49:31;;;;;;;8.80;3.75;;;24.70;61.40;;;;;;6110764;28;80469;-64
2022/07/08 09:52:31;;;;;;;14.63;4.00;;;24.60;61.40;;;;;;6109165;28;81445;-64
2022/07/08 09:55:32;;;;;;;4.75;3.03;;;24.50;61.10;;;;;;6109461;28;80636;-64
2022/07/08 09:58:32;;;;;;;6.05;3.15;;;24.30;62.20;;;;;;6107683;28;81874;-64
2022/07/08 10:01:33;;;;;;;6.85;2.97;;;24.40;61.60;;;;;;6113311;28;80573;-64
2022/07/08 10:04:33;;;;;;;6.03;3.72;;;24.40;61.10;;;;;;6112256;28;80618;-64
2022/07/08 10:07:34;;;;;;;5.82;3.53;;;24.30;60.60;;;;;;6116486;28;80435;-64
2022/07/08 10:10:34;;;;;;;9.27;3.65;;;24.10;60.80;;;;;;6122826;28;81598;-64
2022/07/08 10:13:35;;;;;;;6.20;2.97;;;24.10;61.80;;;;;;6110306;28;80400;-65
2022/07/08 10:16:35;;;;;;;7.32;3.30;;;24.20;61.70;;;;;;6104968;28;80186;-65
2022/07/08 10:19:38;;;;;;;4.82;2.75;;;24.30;62.30;;;;;;6112465;28;80304;-64
2022/07/08 10:22:38;;;;;;;10.88;2.63;;;24.40;61.80;;;;;;6114521;28;80138;-66
2022/07/08 10:25:39;;;;;;;13.27;2.35;;;24.50;61.90;;;;;;6124241;28;80484;-66
2022/07/08 10:28:39;;;;;;;7.03;2.75;;;24.60;62.10;;;;;;6123616;28;80504;-65
2022/07/08 10:31:40;;;;;;;4.85;2.70;;;24.60;62.00;;;;;;6111548;28;81501;-65
2022/07/08 10:34:40;;;;;;;6.22;3.15;;;24.60;62.00;;;;;;6112492;28;80401;-65
2022/07/08 10:37:40;;;;;;;13.88;2.72;;;24.70;61.90;;;;;;6112183;28;80361;-66
2022/07/08 10:40:41;;;;;;;5.30;2.13;;;24.70;62.80;;;;;;6112076;28;80470;-64
2022/07/08 10:43:41;;;;;;;3.15;2.38;;;24.70;62.70;;;;;;6109815;28;80953;-66
2022/07/08 10:46:42;;;;;;;3.88;2.40;;;24.70;62.30;;;;;;6113750;28;80188;-66
2022/07/08 10:49:42;;;;;;;4.50;2.30;;;24.60;63.30;;;;;;6113319;28;81636;-66
2022/07/08 10:52:43;;;;;;;4.55;2.25;;;24.40;63.90;;;;;;6108338;28;81472;-66
2022/07/08 10:55:43;;;;;;;5.97;2.30;;;24.20;64.50;;;;;;6111806;28;81319;-65
2022/07/08 10:58:44;;;;;;;6.20;2.63;;;24.10;64.40;;;;;;6109895;28;80611;-65
2022/07/08 11:01:44;;;;;;;7.60;2.75;;;24.10;64.90;;;;;;6113495;28;80377;-66
2022/07/08 11:04:45;;;;;;;9.18;3.65;;;24.20;65.30;;;;;;6114633;28;80824;-66
2022/07/08 11:07:45;;;;;;;7.80;3.65;;;24.20;66.00;;;;;;6100511;28;80645;-66
2022/07/08 11:10:46;;;;;;;9.07;4.22;;;24.20;66.20;;;;;;6111336;28;80371;-65
2022/07/08 11:13:47;;;;;;;10.88;3.97;;;24.20;66.50;;;;;;6104637;28;80877;-66
2022/07/08 11:16:48;;;;;;;10.68;3.90;;;24.10;66.90;;;;;;6117226;28;80438;-65
2022/07/08 11:19:48;;;;;;;10.85;3.72;;;24.10;67.60;;;;;;6115029;28;80490;-65
2022/07/08 11:22:49;;;;;;;6.93;3.03;;;23.90;68.80;;;;;;6113776;28;81562;-65
2022/07/08 11:25:50;;;;;;;8.98;3.28;;;23.90;71.40;;;;;;6121579;28;80942;-65
2022/07/08 11:28:50;;;;;;;7.10;2.95;;;23.80;71.70;;;;;;6111493;28;80271;-66
2022/07/08 11:31:51;;;;;;;10.18;2.83;;;23.80;70.40;;;;;;6105695;28;80398;-65
2022/07/08 11:34:51;;;;;;;5.65;2.90;;;24.00;69.50;;;;;;6111617;28;80929;-63
2022/07/08 11:37:52;;;;;;;9.48;3.55;;;24.20;68.90;;;;;;6110856;28;80581;-66
2022/07/08 11:40:52;;;;;;;5.80;3.05;;;24.30;68.20;;;;;;6119029;28;81449;-65
2022/07/08 11:43:53;;;;;;;4.93;3.17;;;24.30;67.10;;;;;;6110796;28;81759;-67
2022/07/08 11:46:53;;;;;;;7.53;3.45;;;24.30;67.00;;;;;;6103524;28;81546;-66
2022/07/08 11:49:54;;;;;;;8.60;3.03;;;24.40;66.90;;;;;;6117626;28;80331;-66
2022/07/08 11:52:54;;;;;;;7.07;2.92;;;24.50;66.60;;;;;;6114789;28;80387;-66
2022/07/08 11:55:55;;;;;;;7.05;3.35;;;24.60;67.50;;;;;;6111187;28;80855;-65
2022/07/08 11:58:55;;;;;;;5.43;2.65;;;24.60;65.40;;;;;;6110982;28;80908;-65
2022/07/08 12:01:55;;;;;;;4.38;3.22;;;24.70;65.50;;;;;;6104926;28;80408;-64
2022/07/08 12:04:56;;;;;;;4.57;3.60;;;24.60;65.20;;;;;;6109439;28;81366;-66
2022/07/08 12:07:57;;;;;;;5.57;3.35;;;24.70;65.20;;;;;;6115519;28;81679;-66
2022/07/08 12:10:57;;;;;;;5.53;3.28;;;24.70;63.50;;;;;;6116573;28;81487;-66
2022/07/08 12:13:57;;;;;;;5.72;3.30;;;24.40;61.40;;;;;;6106418;28;81570;-63
2022/07/08 12:16:58;;;;;;;4.75;3.03;;;24.40;61.80;;;;;;6113404;28;80056;-65
2022/07/08 12:19:58;;;;;;;4.97;3.92;;;24.60;61.50;;;;;;6114713;28;81489;-65
2022/07/08 12:22:59;;;;;;;6.70;4.13;;;24.60;61.20;;;;;;6114996;28;80739;-65
2022/07/08 12:26:00;;;;;;;9.38;3.35;;;24.60;61.70;;;;;;6114776;28;80022;-66
2022/07/08 12:29:01;;;;;;;3.85;2.80;;;24.70;61.40;;;;;;6108456;28;80372;-65
2022/07/08 12:32:01;;;;;;;3.65;2.40;;;24.70;61.40;;;;;;6128294;28;81529;-65
2022/07/08 12:35:02;;;;;;;19.20;2.85;;;24.60;61.30;;;;;;6109936;28;80298;-65
2022/07/08 12:38:02;;;;;;;3.60;2.70;;;24.60;62.00;;;;;;6109456;28;80886;-65
2022/07/08 12:41:04;;;;;;;4.47;2.42;;;24.50;62.80;;;;;;6113860;28;80871;-65
2022/07/08 12:44:04;;;;;;;4.22;2.08;;;24.40;63.00;;;;;;6111709;28;80255;-65
2022/07/08 12:47:05;;;;;;;3.97;2.20;;;24.40;63.20;;;;;;6113868;28;81352;-65
2022/07/08 12:50:06;;;;;;;2.67;2.15;;;24.40;63.60;;;;;;6113712;28;81480;-64
2022/07/08 12:53:07;;;;;;;4.25;2.40;;;24.50;63.60;;;;;;6113801;28;80797;-65
2022/07/08 12:56:07;;;;;;;5.93;2.03;;;24.50;63.70;;;;;;6113080;28;81455;-65
2022/07/08 12:59:08;;;;;;;3.55;2.20;;;24.50;63.90;;;;;;6113695;28;80308;-65
2022/07/08 13:02:09;;;;;;;2.80;2.08;;;24.50;63.90;;;;;;6122805;28;81453;-65
2022/07/08 13:05:09;;;;;;;3.80;2.08;;;24.60;63.90;;;;;;6115694;28;80273;-65
2022/07/08 13:08:10;;;;;;;2.65;1.77;;;24.50;63.90;;;;;;6118105;28;81474;-73
2022/07/08 13:11:10;;;;;;;5.40;2.42;;;24.60;64.30;;;;;;6122112;28;80985;-67
2022/07/08 13:14:11;;;;;;;3.63;2.80;;;24.50;64.20;;;;;;6106555;28;80079;-65
2022/07/08 13:17:11;;;;;;;3.38;2.30;;;24.60;64.50;;;;;;6101244;28;81621;-65
2022/07/08 13:20:12;;;;;;;5.13;2.22;;;24.60;64.90;;;;;;6107794;28;80792;-65
2022/07/08 13:23:14;;;;;;;5.15;2.47;;;24.60;65.20;;;;;;6107622;28;83281;-65
2022/07/08 13:26:15;;;;;;;6.20;2.45;;;24.60;65.80;;;;;;6090046;28;80954;-64
2022/07/08 13:29:15;;;;;;;7.35;2.65;;;24.50;65.50;;;;;;6080617;28;81543;-67
2022/07/08 13:32:15;;;;;;;3.85;2.50;;;24.40;66.00;;;;;;6101857;28;80961;-66
2022/07/08 13:35:16;;;;;;;6.75;2.90;;;24.40;66.20;;;;;;6105091;28;80482;-65
2022/07/08 13:38:18;;;;;;;5.60;2.80;;;24.30;66.70;;;;;;6098472;28;80779;-65
2022/07/08 13:41:19;;;;;;;8.77;3.63;;;24.30;67.30;;;;;;6109502;28;80649;-65
2022/07/08 13:44:19;;;;;;;4.95;2.90;;;24.40;67.70;;;;;;6104772;28;81482;-66
2022/07/08 13:47:20;;;;;;;5.57;3.42;;;24.50;68.00;;;;;;6114099;28;80707;-66
2022/07/08 13:50:20;;;;;;;8.10;2.92;;;24.60;68.10;;;;;;6092119;28;82435;-66
2022/07/08 13:53:21;;;;;;;6.07;3.13;;;24.70;68.00;;;;;;6107906;28;81266;-67
2022/07/08 13:56:21;;;;;;;8.27;3.38;;;24.70;68.30;;;;;;6107236;28;80387;-66
2022/07/08 13:59:22;;;;;;;8.77;3.60;;;24.80;68.10;;;;;;6107492;28;81107;-64
2022/07/08 14:02:22;;;;;;;4.72;3.33;;;24.80;68.80;;;;;;6104961;28;80468;-66
2022/07/08 14:05:23;;;;;;;5.82;3.63;;;24.90;68.40;;;;;;6102688;28;80726;-66
2022/07/08 14:08:23;;;;;;;5.85;3.85;;;24.90;68.30;;;;;;6100930;28;80426;-67
2022/07/08 14:11:24;;;;;;;6.05;3.15;;;24.90;68.50;;;;;;6093235;28;80900;-68
2022/07/08 14:14:24;;;;;;;4.25;2.42;;;24.80;66.10;;;;;;6115698;28;84505;-64
2022/07/08 14:17:25;;;;;;;4.43;2.33;;;24.70;65.70;;;;;;6094279;28;80349;-66
2022/07/08 14:20:25;;;;;;;3.05;2.13;;;24.70;66.10;;;;;;6095122;28;80483;-67
2022/07/08 14:23:26;;;;;;;2.60;2.15;;;24.80;66.10;;;;;;6101448;28;80202;-67
2022/07/08 14:26:26;;;;;;;4.18;2.50;;;24.80;65.90;;;;;;6106561;28;80370;-67
2022/07/08 14:29:27;;;;;;;4.75;2.05;;;24.90;65.70;;;;;;6107528;28;80671;-67
2022/07/08 14:32:27;;;;;;;2.70;2.00;;;24.90;65.50;;;;;;6111702;28;81469;-67
2022/07/08 14:35:28;;;;;;;4.57;2.53;;;24.90;65.60;;;;;;6106819;28;80965;-67
2022/07/08 14:38:29;;;;;;;3.25;1.90;;;24.90;66.10;;;;;;6103536;28;80262;-65
2022/07/08 14:41:29;;;;;;;4.72;2.40;;;24.90;66.10;;;;;;6106249;28;81303;-66
2022/07/08 14:44:30;;;;;;;5.60;2.17;;;24.90;66.40;;;;;;6110532;28;80462;-65
2022/07/08 14:47:30;;;;;;;5.18;2.67;;;24.90;67.90;;;;;;6107731;28;83358;-66
2022/07/08 14:50:31;;;;;;;4.70;2.28;;;24.90;66.90;;;;;;6110693;28;80453;-65
2022/07/08 14:53:31;;;;;;;3.90;2.00;;;24.90;66.70;;;;;;6108614;28;80840;-67
2022/07/08 14:56:32;;;;;;;4.35;1.88;;;25.00;67.00;;;;;;6107139;28;80503;-65
2022/07/08 14:59:33;;;;;;;5.82;2.13;;;25.00;66.80;;;;;;6105013;28;81912;-66
2022/07/08 15:02:33;;;;;;;6.20;2.08;;;25.00;66.40;;;;;;6111507;28;80917;-66
2022/07/08 15:05:34;;;;;;;3.33;1.98;;;24.90;66.50;;;;;;6114247;28;80325;-65
2022/07/08 15:08:34;;;;;;;5.88;2.40;;;24.80;66.00;;;;;;6116903;28;80325;-67
2022/07/08 15:11:34;;;;;;;5.60;2.30;;;24.80;66.50;;;;;;6120887;28;87730;-66
2022/07/08 15:14:37;;;;;;;2.50;1.58;;;24.70;66.40;;;;;;6103133;28;80781;-67
2022/07/08 15:17:37;;;;;;;4.22;2.05;;;24.60;66.00;;;;;;6102452;28;80079;-66
2022/07/08 15:20:38;;;;;;;5.18;2.50;;;24.60;66.00;;;;;;6100005;28;80764;-67
2022/07/08 15:23:38;;;;;;;2.92;1.80;;;24.60;66.50;;;;;;6101778;28;80897;-67
2022/07/08 15:26:39;;;;;;;4.25;2.10;;;24.50;66.40;;;;;;6098853;28;80393;-67
2022/07/08 15:29:39;;;;;;;2.00;1.70;;;24.60;65.80;;;;;;6106393;28;80058;-66
2022/07/08 15:32:41;;;;;;;3.45;1.80;;;24.60;66.10;;;;;;6106521;28;81159;-66
2022/07/08 15:35:42;;;;;;;2.28;1.80;;;24.60;65.60;;;;;;6108158;28;81562;-69
2022/07/08 15:38:42;;;;;;;3.13;1.90;;;24.60;66.00;;;;;;6106434;28;81411;-65
2022/07/08 15:41:43;;;;;;;5.55;2.05;;;24.60;66.30;;;;;;6107692;28;80852;-66